Latest Weather Observations for Katanning RS

IDW60801

Issued at 4:04 pm WST Saturday 21 January 2017 (issued every 30 minutes, with the page automatically refreshed every 10 minutes)

About weather observations | Map of weather stations | Latest weather observations for WA | Other Formats
Station Details ID: 010916 Name: KATANNING Lat: -33.69 Lon: 117.61 Height: 320.0 m
Data from the previous 72 hours. | See also: Recent months at Katanning RS
Date/Time
WST
Temp
°C
App
Temp
°C
Dew
Point
°C
Rel
Hum
%
Delta-T
°C
Wind Press
QNH
hPa
Press
MSL
hPa
Rain since
9am
mm
Dir  Spd
km/h
Gust
km/h
Spd
kts
Gust
kts
21/04:00pm 33.8 30.8 0.5 12 16.7 W 6 15 3 8 1006.4 1004.9 0.0
21/03:30pm 33.3 29.2 0.1 12 16.5 SSW 11 19 6 10 1006.6 1005.2 0.0
21/03:00pm 34.0 30.6 1.7 13 16.6 NW 9 24 5 13 1006.9 1005.5 0.0
21/02:30pm 33.4 30.3 1.3 13 16.3 W 7 17 4 9 1007.1 1005.7 0.0
21/02:00pm 33.4 30.6 2.3 14 16.1 SSW 6 17 3 9 1007.4 1006.0 0.0
21/01:30pm 32.9 29.3 0.9 13 16.1 W 9 15 5 8 1007.9 1006.5 0.0
21/01:00pm 32.0 28.8 3.1 16 15.0 S 9 20 5 11 1008.2 1006.8 0.0
21/12:30pm 31.5 27.5 2.7 16 14.8 NNW 13 24 7 13 1008.6 1007.2 0.0
21/12:00pm 30.6 28.2 4.4 19 13.8 WNW 6 9 3 5 1008.9 1007.5 0.0
21/11:30am 30.1 27.9 6.1 22 12.9 WSW 7 15 4 8 1009.4 1008.0 0.0
21/11:00am 29.8 27.3 6.5 23 12.6 WSW 9 15 5 8 1009.8 1008.4 0.0
21/10:30am 27.8 25.9 7.6 28 11.0 NW 7 17 4 9 1010.2 1008.8 0.0
21/10:00am 26.7 25.6 8.6 32 10.0 NNW 4 7 2 4 1010.5 1009.1 0.0
21/09:30am 25.4 23.8 10.1 38 8.6 N 9 15 5 8 1010.8 1009.4 0.0
21/09:00am 22.9 21.6 10.0 44 7.1 NNW 7 11 4 6 1011.1 1009.7 0.0
21/08:30am 21.6 20.4 10.4 49 6.2 N 7 13 4 7 1011.2 1009.8 0.0
21/08:00am 19.6 19.1 10.9 57 4.8 NE 4 11 2 6 1011.4 1010.0 0.0
21/07:30am 17.8 17.2 10.4 62 4.0 ENE 4 7 2 4 1011.3 1009.9 0.0
21/07:00am 15.8 15.7 10.8 72 2.7 ESE 2 4 1 2 1011.2 1009.8 0.0
21/06:30am 13.4 12.4 10.2 81 1.7 S 6 7 3 4 1011.1 1009.7 0.0
21/06:00am 11.8 11.7 9.5 86 1.2 CALM 0 0 0 0 1010.9 1009.5 0.0
21/05:30am 10.0 9.4 7.6 85 1.2 CALM 0 0 0 0 1010.7 1009.3 0.0
21/05:00am 10.6 10.1 8.0 84 1.3 CALM 0 0 0 0 1010.4 1009.0 0.0
21/04:30am 10.9 10.5 8.3 84 1.3 CALM 0 4 0 2 1010.3 1008.9 0.0
21/04:00am 11.3 11.0 8.5 83 1.4 CALM 0 2 0 1 1010.4 1009.0 0.0
21/03:30am 11.8 10.8 8.8 82 1.5 ESE 4 6 2 3 1010.2 1008.8 0.0
21/03:00am 12.1 10.7 8.9 81 1.6 ESE 6 7 3 4 1010.5 1009.1 0.0
21/02:30am 12.7 11.4 9.3 80 1.7 ESE 6 7 3 4 1010.9 1009.5 0.0
21/02:00am 13.1 11.7 9.4 78 1.9 E 7 11 4 6 1011.1 1009.7 0.0
21/01:30am 13.4 11.2 9.5 77 2.0 E 11 17 6 9 1011.3 1009.9 0.0
21/01:00am 13.6 11.8 9.3 75 2.2 E 9 13 5 7 1011.6 1010.2 0.0
21/12:30am 13.9 11.6 9.1 73 2.5 E 11 17 6 9 1012.1 1010.8 0.0
21/12:00am 14.1 11.8 9.1 72 2.6 E 11 17 6 9 1012.4 1011.0 0.0
 
Date/Time
WST
Temp
°C
App
Temp
°C
Dew
Point
°C
Rel
Hum
%
Delta-T
°C
Wind Press
QNH
hPa
Press
MSL
hPa
Rain since
9am
mm
Dir  Spd
km/h
Gust
km/h
Spd
kts
Gust
kts
20/11:30pm 14.5 11.2 9.5 72 2.6 E 17 24 9 13 1012.6 1011.2 0.0
20/11:00pm 14.7 11.8 9.5 71 2.7 ESE 15 22 8 12 1012.8 1011.4 0.0
20/10:30pm 15.2 11.5 9.3 68 3.1 ESE 19 30 10 16 1013.1 1011.7 0.0
20/10:00pm 15.9 12.2 9.3 65 3.5 ESE 19 26 10 14 1012.8 1011.4 0.0
20/09:30pm 16.9 13.0 9.3 61 4.0 ESE 20 28 11 15 1012.5 1011.1 0.0
20/09:00pm 18.0 14.3 9.4 57 4.6 ESE 19 26 10 14 1012.2 1010.9 0.0
20/08:30pm 19.1 14.8 9.3 53 5.2 SE 22 30 12 16 1011.9 1010.6 0.0
20/08:00pm 20.7 16.0 9.3 48 6.2 SE 24 35 13 19 1011.5 1010.1 0.0
20/07:30pm 22.5 17.2 8.6 41 7.5 SE 26 35 14 19 1010.9 1009.5 0.0
20/07:00pm 25.8 21.7 6.4 29 10.3 SE 17 30 9 16 1010.2 1008.8 0.0
20/06:30pm 28.7 24.8 -1.4 14 14.1 SE 9 15 5 8 1009.8 1008.4 0.0
20/06:00pm 29.3 25.0 -1.9 13 14.6 SSE 11 22 6 12 1009.8 1008.4 0.0
20/05:30pm 29.2 25.4 -1.0 14 14.3 SSE 9 17 5 9 1009.6 1008.2 0.0
20/05:00pm 29.3 25.0 -1.9 13 14.6 SSE 11 22 6 12 1009.8 1008.4 0.0
20/04:30pm 29.4 25.2 -0.9 14 14.4 SSE 11 22 6 12 1009.9 1008.5 0.0
20/04:00pm 29.4 24.6 0.1 15 14.2 SE 15 20 8 11 1010.2 1008.8 0.0
20/03:30pm 29.1 25.5 0.7 16 13.8 SSE 9 20 5 11 1010.5 1009.1 0.0
20/03:00pm 27.9 24.3 0.6 17 13.2 ESE 9 17 5 9 1010.9 1009.5 0.0
20/02:30pm 28.1 25.3 2.3 19 12.9 W 6 11 3 6 1011.1 1009.7 0.0
20/02:00pm 28.0 24.7 2.2 19 12.8 SSE 9 20 5 11 1011.5 1010.1 0.0
20/01:30pm 26.9 24.3 3.4 22 11.8 WSW 6 17 3 9 1011.9 1010.6 0.0
20/01:00pm 25.9 23.3 3.2 23 11.3 SSW 6 17 3 9 1012.2 1010.9 0.0
20/12:30pm 25.2 23.1 3.8 25 10.7 WNW 4 11 2 6 1012.5 1011.1 0.0
20/12:00pm 24.7 22.7 4.5 27 10.2 ESE 4 7 2 4 1012.8 1011.4 0.0
20/11:30am 23.2 20.3 4.7 30 9.3 SE 9 17 5 9 1013.2 1011.8 0.0
20/11:00am 22.6 20.2 5.1 32 8.8 WSW 7 15 4 8 1013.6 1012.2 0.0
20/10:30am 22.0 20.2 5.4 34 8.4 NNW 4 13 2 7 1013.8 1012.4 0.0
20/10:00am 19.6 17.5 5.6 40 7.0 NE 6 15 3 8 1013.7 1012.3 0.0
20/09:30am 19.0 17.0 6.2 43 6.5 SE 6 13 3 7 1013.9 1012.5 0.0
20/09:00am 18.0 15.0 6.2 46 5.9 SSE 11 19 6 10 1013.7 1012.3 0.0
20/08:30am 17.1 15.0 6.6 50 5.3 ESE 7 15 4 8 1013.8 1012.4 0.0
20/08:00am 16.4 14.1 7.3 55 4.6 SE 9 17 5 9 1014.1 1012.7 0.0
20/07:30am 15.3 13.2 8.3 63 3.6 SE 9 15 5 8 1014.2 1012.8 0.0
20/07:00am 13.7 11.9 8.1 69 2.8 SSE 7 11 4 6 1014.2 1012.8 0.0
20/06:30am 12.6 12.2 8.3 75 2.2 CALM 0 4 0 2 1014.1 1012.7 0.0
20/06:00am 10.3 9.3 7.5 83 1.4 S 2 6 1 3 1014.3 1012.9 0.0
20/05:30am 9.3 8.5 6.7 84 1.2 CALM 0 0 0 0 1014.0 1012.6 0.0
20/05:00am 9.1 8.3 6.5 84 1.2 CALM 0 0 0 0 1014.0 1012.6 0.0
20/04:30am 8.2 7.2 5.5 83 1.2 CALM 0 0 0 0 1014.0 1012.6 0.0
20/04:00am 7.8 6.6 4.7 81 1.4 CALM 0 0 0 0 1013.8 1012.4 0.0
20/03:30am 9.0 7.3 5.7 80 1.5 S 4 6 2 3 1013.8 1012.4 0.0
20/03:00am 9.1 8.0 5.3 77 1.7 CALM 0 6 0 3 1013.9 1012.5 0.0
20/02:30am 10.4 8.8 6.5 77 1.9 S 4 6 2 3 1013.9 1012.5 0.0
20/02:00am 10.6 8.5 6.7 77 1.9 S 7 9 4 5 1014.0 1012.6 0.0
20/01:30am 10.8 9.3 6.6 75 2.0 SSE 4 6 2 3 1014.1 1012.7 0.0
20/01:00am 10.9 9.7 6.5 74 2.1 SSE 2 6 1 3 1014.3 1012.9 0.0
20/12:30am 11.2 10.0 6.3 72 2.3 SSE 2 4 1 2 1014.6 1013.2 0.0
20/12:00am 11.6 9.4 6.3 70 2.5 SSE 7 9 4 5 1014.5 1013.1 0.0
 
Date/Time
WST
Temp
°C
App
Temp
°C
Dew
Point
°C
Rel
Hum
%
Delta-T
°C
Wind Press
QNH
hPa
Press
MSL
hPa
Rain since
9am
mm
Dir  Spd
km/h
Gust
km/h
Spd
kts
Gust
kts
19/11:30pm 12.4 9.9 6.5 67 2.9 SSE 9 9 5 5 1014.4 1013.0 0.0
19/11:00pm 13.0 9.7 6.4 64 3.2 S 13 17 7 9 1014.3 1012.9 0.0
19/10:30pm 13.3 10.4 6.4 63 3.4 SSE 11 17 6 9 1014.3 1012.9 0.0
19/10:00pm 13.8 10.8 6.2 60 3.7 SSE 11 15 6 8 1014.2 1012.8 0.0
19/09:30pm 14.7 11.4 6.3 57 4.1 SSE 13 19 7 10 1014.0 1012.6 0.0
19/09:00pm 15.5 11.4 6.2 54 4.6 SSE 17 24 9 13 1013.8 1012.4 0.0
19/08:30pm 16.4 12.3 6.0 50 5.1 SSE 17 26 9 14 1013.3 1011.9 0.0
19/08:00pm 17.0 13.2 5.6 47 5.6 SSE 15 20 8 11 1012.9 1011.5 0.0
19/07:30pm 18.0 14.4 5.2 43 6.3 SSE 13 20 7 11 1012.6 1011.2 0.0
19/07:00pm 19.1 14.7 4.8 39 7.0 S 17 26 9 14 1012.1 1010.8 0.0
19/06:30pm 20.4 15.4 4.8 36 7.7 SSE 20 28 11 15 1011.8 1010.4 0.0
19/06:00pm 21.1 16.2 4.2 33 8.3 SSE 19 24 10 13 1011.4 1010.0 0.0
19/05:30pm 22.2 17.1 4.3 31 8.9 S 20 30 11 16 1011.1 1009.7 0.0
19/05:00pm 22.9 18.3 3.9 29 9.4 S 17 30 9 16 1011.0 1009.6 0.0
19/04:30pm 23.4 18.3 3.9 28 9.7 SSE 20 30 11 16 1010.9 1009.5 0.0
19/04:00pm 23.4 18.1 2.8 26 10.0 S 20 35 11 19 1011.0 1009.6 0.0
19/03:30pm 24.4 18.9 4.2 27 10.2 SSW 22 39 12 21 1010.8 1009.4 0.0
19/03:00pm 23.9 18.6 3.2 26 10.2 S 20 37 11 20 1010.6 1009.2 0.0
19/02:30pm 23.6 17.8 2.4 25 10.3 S 22 32 12 17 1010.5 1009.1 0.0
19/02:00pm 24.4 19.0 2.5 24 10.7 SSW 20 37 11 20 1010.6 1009.2 0.0
19/01:30pm 23.8 17.4 0.8 22 10.8 SSW 24 39 13 21 1010.6 1009.2 0.0
19/01:00pm 23.8 17.8 3.2 26 10.1 SSW 24 37 13 20 1010.6 1009.2 0.0
19/12:30pm 23.4 17.9 3.9 28 9.7 S 22 35 12 19 1010.8 1009.4 0.0
19/12:00pm 22.3 16.3 3.4 29 9.2 SSW 24 39 13 21 1011.0 1009.6 0.0
19/11:30am 22.0 16.3 5.0 33 8.5 SSW 24 37 13 20 1011.2 1009.8 0.0
19/11:00am 21.7 16.2 6.0 36 8.0 SSW 24 41 13 22 1011.4 1010.0 0.0
19/10:30am 20.2 14.4 6.2 40 7.1 SSW 26 43 14 23 1011.4 1010.0 0.0
19/10:00am 19.6 14.2 8.0 47 6.1 SW 26 37 14 20 1011.6 1010.2 0.0
19/09:30am 18.6 12.7 7.7 49 5.6 SW 28 41 15 22 1011.6 1010.2 0.0
19/09:00am 17.4 12.0 8.0 54 4.9 SW 26 37 14 20 1011.6 1010.2 0.0
19/08:30am 18.1 13.3 8.9 55 4.9 SW 24 37 13 20 1011.4 1010.0 0.0
19/08:00am 16.5 11.1 8.2 58 4.3 SSW 26 37 14 20 1011.2 1009.8 0.0
19/07:30am 16.3 11.1 8.8 61 3.9 SW 26 37 14 20 1010.9 1009.5 0.0
19/07:00am 15.2 10.8 8.9 66 3.3 SW 22 35 12 19 1010.8 1009.4 0.0
19/06:30am 14.2 9.9 7.9 66 3.2 SW 20 28 11 15 1010.7 1009.3 0.0
19/06:00am 13.8 10.8 7.6 66 3.1 SW 13 20 7 11 1010.3 1008.9 0.0
19/05:30am 13.4 9.2 7.4 67 3.0 SW 19 32 10 17 1009.7 1008.3 0.0
19/05:00am 14.0 9.5 8.6 70 2.8 SW 22 35 12 19 1009.2 1007.8 0.0
19/04:30am 14.6 9.9 9.2 70 2.8 WSW 24 33 13 18 1008.7 1007.3 0.0
19/04:00am 15.0 11.6 10.4 74 2.5 WSW 19 24 10 13 1008.3 1006.9 0.0
19/03:30am 15.2 11.6 10.6 74 2.5 SW 20 32 11 17 1008.3 1006.9 0.0
19/03:00am 15.0 10.2 10.2 73 2.6 SW 26 35 14 19 1008.3 1006.9 0.0
19/02:30am 15.7 11.2 10.0 69 3.0 SW 24 37 13 20 1007.9 1006.5 0.0
19/02:00am 16.1 13.0 10.4 69 3.1 SW 17 28 9 15 1008.0 1006.6 0.0
19/01:30am 16.9 12.5 10.5 66 3.5 SW 24 35 13 19 1008.1 1006.7 0.0
19/01:00am 17.5 13.3 9.9 61 4.1 SW 22 32 12 17 1007.8 1006.4 0.0
19/12:30am 17.9 14.1 9.8 59 4.3 SW 20 33 11 18 1007.6 1006.2 0.0
19/12:00am 18.6 15.0 10.4 59 4.5 SW 20 28 11 15 1007.9 1006.5 0.0
 
Date/Time
WST
Temp
°C
App
Temp
°C
Dew
Point
°C
Rel
Hum
%
Delta-T
°C
Wind Press
QNH
hPa
Press
MSL
hPa
Rain since
9am
mm
Dir  Spd
km/h
Gust
km/h
Spd
kts
Gust
kts
18/11:30pm 19.9 17.6 10.3 54 5.3 SW 13 19 7 10 1007.9 1006.5 0.0
18/11:00pm 20.2 18.3 10.6 54 5.3 SSW 11 15 6 8 1007.7 1006.3 0.0
18/10:30pm 21.0 19.8 10.2 50 5.9 S 7 9 4 5 1007.7 1006.3 0.0
18/10:00pm 21.6 20.4 9.5 46 6.6 SE 6 13 3 7 1007.9 1006.5 0.0
18/09:30pm 22.3 19.6 9.1 43 7.2 E 13 19 7 10 1007.4 1006.0 0.0
18/09:00pm 23.3 19.4 8.6 39 8.0 ESE 19 24 10 13 1007.4 1006.0 0.0
18/08:30pm 25.8 24.4 3.7 24 11.1 CALM 0 0 0 0 1007.2 1005.8 0.0
18/08:00pm 25.9 24.4 3.2 23 11.4 CALM 0 0 0 0 1007.2 1005.8 0.0
18/07:30pm 26.6 25.1 3.2 22 11.7 CALM 0 0 0 0 1007.3 1005.9 0.0
18/07:00pm 27.7 25.9 3.4 21 12.3 ENE 2 4 1 2 1007.4 1006.0 0.0
18/06:30pm 28.4 26.5 2.6 19 12.9 NNW 2 7 1 4 1007.3 1005.9 0.0
18/06:00pm 28.6 25.9 2.7 19 13.1 NNW 6 13 3 7 1007.5 1006.1 0.0
18/05:30pm 29.5 26.6 2.7 18 13.6 ENE 7 13 4 7 1007.7 1006.3 0.0
18/05:00pm 28.6 25.8 2.0 18 13.3 ENE 6 19 3 10 1007.9 1006.5 0.0
18/04:30pm 29.0 25.7 2.3 18 13.4 NE 9 20 5 11 1008.1 1006.7 0.0

Other Formats:

Comma delimited format used in spreadsheet applications
http://www.bom.gov.au/fwo/IDW60801/IDW60801.94641.axf

JavaScript Object Notation format (JSON) in row-major order
http://www.bom.gov.au/fwo/IDW60801/IDW60801.94641.json